createdAt,value
2023-05-02T00:00:45.380Z,40.35
2023-05-02T00:01:45.421Z,41.26
2023-05-02T00:02:45.633Z,39.75
2023-05-02T00:03:45.624Z,40.10
2023-05-02T00:04:45.486Z,40.45
2023-05-02T00:05:45.490Z,36.90
2023-05-02T00:06:45.574Z,38.74
2023-05-02T00:07:45.544Z,41.51
2023-05-02T00:08:45.587Z,40.90
2023-05-02T00:09:45.608Z,38.83
2023-05-02T00:10:45.637Z,39.65
2023-05-02T00:11:45.647Z,40.42
2023-05-02T00:12:45.671Z,39.19
2023-05-02T00:13:45.688Z,37.86
2023-05-02T00:14:45.708Z,40.07
2023-05-02T00:15:45.732Z,38.54
2023-05-02T00:16:45.775Z,39.21
2023-05-02T00:17:45.818Z,39.93
2023-05-02T00:18:45.780Z,38.06
2023-05-02T00:19:45.809Z,38.06
2023-05-02T00:20:45.850Z,38.60
2023-05-02T00:21:45.860Z,37.32
2023-05-02T00:22:45.958Z,34.66
2023-05-02T00:23:45.897Z,35.96
2023-05-02T00:24:45.928Z,36.32
2023-05-02T00:25:45.966Z,37.73
2023-05-02T00:26:45.975Z,36.81
2023-05-02T00:27:45.996Z,39.06
2023-05-02T00:28:46.030Z,38.86
2023-05-02T00:29:46.037Z,36.60
2023-05-02T00:30:46.133Z,37.61
2023-05-02T00:31:46.081Z,37.42
2023-05-02T00:32:46.119Z,35.22
2023-05-02T00:33:46.132Z,36.01
2023-05-02T00:34:46.169Z,37.19
2023-05-02T00:35:46.196Z,37.83
2023-05-02T00:36:46.235Z,37.14
2023-05-02T00:37:46.254Z,35.92
2023-05-02T00:38:46.285Z,37.15
2023-05-02T00:39:46.332Z,38.47
2023-05-02T00:40:46.364Z,36.00
2023-05-02T00:41:46.351Z,37.77
2023-05-02T00:42:46.382Z,37.13
2023-05-02T00:43:46.401Z,36.16
2023-05-02T00:44:46.421Z,37.28
2023-05-02T00:45:46.602Z,35.37
2023-05-02T00:46:46.585Z,38.06
2023-05-02T00:47:46.521Z,35.01
2023-05-02T00:48:46.511Z,36.28
2023-05-02T00:49:46.552Z,36.53
2023-05-02T00:50:46.582Z,35.55
2023-05-02T00:51:46.606Z,37.31
2023-05-02T00:52:46.625Z,34.99
2023-05-02T00:53:46.646Z,36.15
2023-05-02T00:54:46.675Z,34.56
2023-05-02T00:55:46.705Z,37.52
2023-05-02T00:56:46.742Z,36.33
2023-05-02T00:57:46.760Z,36.17
2023-05-02T00:58:46.785Z,38.03
2023-05-02T00:59:46.829Z,36.25
2023-05-02T01:00:46.851Z,35.86
2023-05-02T01:01:46.911Z,37.45
2023-05-02T01:02:46.946Z,36.21
2023-05-02T01:03:47.092Z,35.26
2023-05-02T01:04:46.960Z,35.86
2023-05-02T01:05:46.986Z,33.65
2023-05-02T01:06:47.226Z,36.83
2023-05-02T01:07:47.045Z,35.26
2023-05-02T01:08:47.068Z,36.21
2023-05-02T01:09:47.101Z,32.78
2023-05-02T01:10:47.113Z,35.64
2023-05-02T01:11:47.149Z,37.57
2023-05-02T01:12:47.182Z,33.42
2023-05-02T01:13:47.207Z,35.18
2023-05-02T01:14:47.232Z,36.31
2023-05-02T01:15:47.279Z,38.38
2023-05-02T01:16:47.281Z,37.93
2023-05-02T01:17:47.349Z,36.40
2023-05-02T01:18:47.330Z,36.78
2023-05-02T01:19:47.349Z,38.43
2023-05-02T01:20:47.378Z,35.50
2023-05-02T01:21:47.418Z,36.96
2023-05-02T01:22:47.521Z,36.95
2023-05-02T01:23:47.475Z,35.89
2023-05-02T01:24:47.511Z,36.97
2023-05-02T01:25:47.544Z,36.28
2023-05-02T01:26:47.578Z,35.93
2023-05-02T01:27:47.607Z,36.77
2023-05-02T01:28:47.637Z,33.35
2023-05-02T01:29:47.664Z,34.24
2023-05-02T01:30:47.688Z,30.63
2023-05-02T01:31:47.757Z,34.41
2023-05-02T01:32:47.825Z,34.97
2023-05-02T01:33:47.877Z,36.72
2023-05-02T01:34:47.823Z,33.32
2023-05-02T01:35:47.844Z,34.92
2023-05-02T01:36:47.876Z,34.27
2023-05-02T01:37:47.914Z,32.62
2023-05-02T01:38:47.955Z,35.80
2023-05-02T01:39:47.966Z,33.95
2023-05-02T01:40:48.013Z,34.57
2023-05-02T01:41:48.042Z,34.27
2023-05-02T01:42:48.049Z,38.72
2023-05-02T01:43:48.120Z,36.09
2023-05-02T01:44:48.139Z,35.25
2023-05-02T01:45:48.134Z,34.38
2023-05-02T01:46:48.208Z,34.63
2023-05-02T01:47:48.267Z,34.45
2023-05-02T01:48:48.221Z,34.01
2023-05-02T01:49:48.249Z,35.13
2023-05-02T01:50:48.278Z,34.90
2023-05-02T01:51:48.325Z,31.64
2023-05-02T01:52:48.345Z,36.74
2023-05-02T01:53:48.376Z,34.54
2023-05-02T01:54:48.390Z,32.45
2023-05-02T01:55:48.428Z,33.35
2023-05-02T01:56:48.465Z,31.10
2023-05-02T01:57:48.493Z,33.45
2023-05-02T01:58:48.518Z,33.69
2023-05-02T01:59:48.575Z,35.95
2023-05-02T02:00:48.612Z,34.08
2023-05-02T02:01:48.627Z,34.14
2023-05-02T02:02:48.742Z,34.97
2023-05-02T02:03:48.721Z,34.75
2023-05-02T02:04:48.858Z,34.87
2023-05-02T02:05:48.746Z,33.24
2023-05-02T02:06:48.892Z,32.82
2023-05-02T02:07:48.789Z,34.28
2023-05-02T02:08:48.814Z,33.20
2023-05-02T02:09:48.851Z,33.46
2023-05-02T02:10:49.005Z,32.45
2023-05-02T02:11:48.913Z,34.39
2023-05-02T02:12:48.927Z,32.95
2023-05-02T02:13:48.956Z,35.53
2023-05-02T02:14:48.972Z,33.29
2023-05-02T02:15:49.031Z,32.30
2023-05-02T02:16:49.095Z,35.74
2023-05-02T02:17:49.114Z,33.31
2023-05-02T02:18:49.092Z,34.31
2023-05-02T02:19:49.118Z,33.48
2023-05-02T02:20:49.152Z,34.08
2023-05-02T02:21:49.181Z,33.90
2023-05-02T02:22:49.210Z,33.11
2023-05-02T02:23:49.257Z,33.00
2023-05-02T02:24:49.256Z,30.87
2023-05-02T02:25:49.305Z,31.99
2023-05-02T02:26:49.299Z,31.31
2023-05-02T02:27:49.342Z,35.70
2023-05-02T02:28:49.355Z,31.62
2023-05-02T02:29:49.375Z,31.63
2023-05-02T02:30:49.426Z,32.70
2023-05-02T02:31:49.423Z,31.66
2023-05-02T02:32:49.521Z,31.70
2023-05-02T02:33:49.484Z,31.80
2023-05-02T02:34:49.511Z,31.61
2023-05-02T02:35:49.529Z,33.19
2023-05-02T02:36:49.557Z,32.04
2023-05-02T02:37:49.579Z,31.03
2023-05-02T02:38:49.624Z,33.88
2023-05-02T02:39:49.637Z,32.06
2023-05-02T02:40:49.684Z,30.90
2023-05-02T02:41:49.693Z,32.31
2023-05-02T02:42:49.705Z,31.37
2023-05-02T02:43:49.719Z,33.65
2023-05-02T02:44:49.751Z,30.40
2023-05-02T02:45:49.780Z,30.63
2023-05-02T02:46:49.851Z,32.43
2023-05-02T02:47:49.873Z,30.92
2023-05-02T02:48:49.838Z,32.38
2023-05-02T02:49:49.902Z,31.55
2023-05-02T02:50:49.894Z,33.36
2023-05-02T02:51:49.921Z,31.49
2023-05-02T02:52:49.941Z,33.38
2023-05-02T02:53:49.966Z,30.62
2023-05-02T02:54:49.991Z,28.97
2023-05-02T02:55:50.010Z,32.27
2023-05-02T02:56:50.057Z,30.87
2023-05-02T02:57:50.065Z,31.32
2023-05-02T02:58:50.111Z,30.87
2023-05-02T02:59:50.119Z,33.37
2023-05-02T03:00:50.128Z,32.72
2023-05-02T03:01:50.206Z,30.11
2023-05-02T03:02:50.206Z,32.73
2023-05-02T03:03:50.229Z,30.28
2023-05-02T03:04:50.224Z,29.61
2023-05-02T03:05:50.253Z,30.46
2023-05-02T03:06:50.356Z,31.48
2023-05-02T03:07:50.315Z,27.17
2023-05-02T03:08:50.352Z,30.99
2023-05-02T03:09:50.372Z,31.32
2023-05-02T03:10:50.391Z,32.15
2023-05-02T03:11:50.411Z,30.66
2023-05-02T03:12:50.440Z,34.13
2023-05-02T03:13:50.463Z,30.61
2023-05-02T03:14:50.490Z,32.00
2023-05-02T03:15:50.550Z,31.56
2023-05-02T03:16:50.548Z,30.93
2023-05-02T03:17:50.610Z,27.71
2023-05-02T03:18:50.599Z,29.91
2023-05-02T03:19:50.628Z,29.22
2023-05-02T03:20:50.652Z,30.09
2023-05-02T03:21:50.692Z,29.76
2023-05-02T03:22:50.723Z,29.51
2023-05-02T03:23:50.757Z,32.34
2023-05-02T03:24:50.789Z,31.97
2023-05-02T03:25:50.823Z,31.56
2023-05-02T03:26:50.852Z,30.01
2023-05-02T03:27:50.885Z,31.20
2023-05-02T03:28:50.919Z,31.15
2023-05-02T03:29:50.950Z,29.50
2023-05-02T03:30:50.980Z,29.40
2023-05-02T03:31:51.066Z,29.23
2023-05-02T03:32:51.113Z,30.40
2023-05-02T03:33:51.076Z,29.11
2023-05-02T03:34:51.123Z,29.07
2023-05-02T03:35:51.118Z,29.35
2023-05-02T03:36:51.140Z,30.03
2023-05-02T03:37:51.143Z,30.54
2023-05-02T03:38:51.153Z,30.33
2023-05-02T03:39:51.150Z,29.89
2023-05-02T03:40:51.150Z,31.37
2023-05-02T03:41:51.162Z,31.85
2023-05-02T03:42:51.167Z,30.74
2023-05-02T03:43:51.178Z,31.49
2023-05-02T03:44:51.172Z,29.00
2023-05-02T03:45:51.184Z,30.85
2023-05-02T03:46:51.250Z,31.27
2023-05-02T03:47:51.213Z,28.72
2023-05-02T03:48:51.208Z,30.82
2023-05-02T03:49:51.208Z,32.25
2023-05-02T03:50:51.222Z,30.42
2023-05-02T03:51:51.227Z,30.34
2023-05-02T03:52:51.228Z,29.72
2023-05-02T03:53:51.236Z,28.36
2023-05-02T03:54:51.252Z,29.60
2023-05-02T03:55:51.244Z,31.76
2023-05-02T03:56:51.269Z,32.21
2023-05-02T03:57:51.255Z,30.41
2023-05-02T03:58:51.392Z,28.84
2023-05-02T03:59:51.306Z,29.70
2023-05-02T04:00:51.341Z,29.03
2023-05-02T04:01:51.422Z,31.54
2023-05-02T04:02:51.541Z,28.92
2023-05-02T04:03:51.472Z,28.41
2023-05-02T04:04:51.482Z,31.97
2023-05-02T04:05:51.533Z,29.04
2023-05-02T04:06:51.666Z,29.88
2023-05-02T04:07:51.566Z,30.40
2023-05-02T04:08:51.601Z,31.71
2023-05-02T04:09:51.641Z,31.64
2023-05-02T04:10:51.663Z,29.61
2023-05-02T04:11:51.686Z,28.74
2023-05-02T04:12:51.710Z,29.19
2023-05-02T04:13:53.439Z,26.42
2023-05-02T04:14:51.784Z,28.24
2023-05-02T04:15:51.805Z,29.21
2023-05-02T04:16:51.881Z,27.00
2023-05-02T04:17:51.896Z,32.55
2023-05-02T04:18:51.888Z,29.54
2023-05-02T04:19:51.901Z,27.68
2023-05-02T04:20:51.929Z,29.15
2023-05-02T04:21:51.957Z,30.48
2023-05-02T04:22:51.985Z,30.37
2023-05-02T04:23:52.008Z,29.29
2023-05-02T04:24:52.039Z,30.85
2023-05-02T04:25:52.062Z,32.55
2023-05-02T04:26:52.094Z,29.38
2023-05-02T04:27:52.128Z,29.09
2023-05-02T04:28:52.163Z,28.12
2023-05-02T04:29:52.192Z,29.75
2023-05-02T04:30:52.250Z,31.53
2023-05-02T04:31:52.232Z,28.79
2023-05-02T04:32:52.333Z,27.55
2023-05-02T04:33:52.283Z,29.93
2023-05-02T04:34:52.342Z,32.12
2023-05-02T04:35:52.365Z,28.29
2023-05-02T04:36:52.388Z,29.67
2023-05-02T04:37:52.417Z,29.76
2023-05-02T04:38:52.431Z,29.24
2023-05-02T04:39:52.470Z,25.00
2023-05-02T04:40:52.502Z,29.12
2023-05-02T04:41:52.534Z,29.04
2023-05-02T04:42:52.558Z,28.83
2023-05-02T04:43:52.580Z,28.98
2023-05-02T04:44:52.605Z,29.04
2023-05-02T04:45:52.687Z,30.57
2023-05-02T04:46:52.686Z,29.82
2023-05-02T04:47:52.758Z,28.73
2023-05-02T04:48:52.706Z,29.30
2023-05-02T04:49:52.748Z,29.97
2023-05-02T04:50:52.772Z,30.27
2023-05-02T04:51:52.802Z,30.07
2023-05-02T04:52:52.830Z,28.97
2023-05-02T04:53:52.856Z,29.57
2023-05-02T04:54:52.902Z,30.99
2023-05-02T04:55:53.252Z,29.54
2023-05-02T04:56:52.956Z,29.91
2023-05-02T04:57:53.735Z,28.44
2023-05-02T04:58:53.007Z,29.77
2023-05-02T04:59:53.041Z,27.79
2023-05-02T05:00:53.069Z,27.54
2023-05-02T05:01:53.137Z,28.08
2023-05-02T05:02:53.188Z,28.85
2023-05-02T05:03:53.223Z,29.53
2023-05-02T05:04:53.263Z,27.45
2023-05-02T05:05:53.204Z,29.62
2023-05-02T05:06:53.313Z,28.03
2023-05-02T05:07:53.263Z,26.46
2023-05-02T05:08:53.297Z,27.54
2023-05-02T05:09:53.620Z,30.40
2023-05-02T05:10:53.362Z,32.73
2023-05-02T05:11:53.398Z,29.91
2023-05-02T05:12:53.437Z,30.84
2023-05-02T05:13:53.452Z,28.71
2023-05-02T05:14:53.481Z,29.06
2023-05-02T05:15:53.520Z,31.79
2023-05-02T05:16:53.555Z,30.46
2023-05-02T05:17:53.596Z,31.40
2023-05-02T05:18:53.618Z,27.16
2023-05-02T05:19:53.669Z,27.67
2023-05-02T05:20:53.694Z,29.14
2023-05-02T05:21:53.717Z,28.00
2023-05-02T05:22:53.754Z,32.03
2023-05-02T05:23:53.801Z,32.87
2023-05-02T05:24:53.841Z,31.28
2023-05-02T05:25:53.837Z,36.53
2023-05-02T05:26:53.842Z,43.32
2023-05-02T05:27:53.868Z,53.11
2023-05-02T05:28:53.876Z,63.80
2023-05-02T05:29:53.916Z,69.73
2023-05-02T05:30:53.914Z,80.93
2023-05-02T05:31:53.960Z,92.74
2023-05-02T05:32:54.703Z,101.22
2023-05-02T05:33:54.049Z,100.20
2023-05-02T05:34:54.053Z,114.81
2023-05-02T05:35:54.110Z,122.60
2023-05-02T05:36:54.172Z,127.35
2023-05-02T05:37:54.237Z,134.35
2023-05-02T05:38:54.293Z,141.74
2023-05-02T05:39:54.357Z,148.70
2023-05-02T05:40:54.404Z,156.76
2023-05-02T05:41:54.452Z,160.98
2023-05-02T05:42:54.497Z,167.38
2023-05-02T05:43:54.540Z,175.64
2023-05-02T05:44:54.590Z,187.31
2023-05-02T05:45:54.628Z,200.32
2023-05-02T05:46:54.760Z,210.28
2023-05-02T05:47:54.727Z,213.02
2023-05-02T05:48:54.708Z,223.69
2023-05-02T05:49:54.750Z,230.52
2023-05-02T05:50:54.758Z,238.55
2023-05-02T05:51:54.770Z,245.28
2023-05-02T05:52:54.790Z,249.96
2023-05-02T05:53:54.821Z,250.00
2023-05-02T05:54:54.893Z,248.46
2023-05-02T05:55:54.823Z,246.46
2023-05-02T05:56:54.848Z,250.00
2023-05-02T05:57:54.844Z,249.45
2023-05-02T05:58:54.912Z,248.37
2023-05-02T05:59:54.858Z,250.00
2023-05-02T06:00:54.858Z,250.00
2023-05-02T06:01:54.872Z,250.17
2023-05-02T06:02:54.945Z,249.93
2023-05-02T06:03:54.885Z,250.02
2023-05-02T06:04:54.906Z,250.00
2023-05-02T06:05:54.869Z,249.39
2023-05-02T06:06:54.987Z,248.42
2023-05-02T06:07:54.852Z,250.00
2023-05-02T06:08:54.845Z,250.38
2023-05-02T06:09:54.828Z,252.26
2023-05-02T06:10:54.824Z,256.73
2023-05-02T06:11:54.830Z,266.78
2023-05-02T06:12:55.280Z,280.24
2023-05-02T06:13:54.818Z,260.54
2023-05-02T06:14:54.785Z,249.80
2023-05-02T06:15:54.782Z,249.08
2023-05-02T06:16:54.775Z,249.18
2023-05-02T06:17:54.777Z,249.19
2023-05-02T06:18:54.739Z,249.70
2023-05-02T06:19:54.727Z,250.04
2023-05-02T06:20:54.702Z,251.26
2023-05-02T06:21:54.674Z,252.65
2023-05-02T06:22:54.653Z,254.55
2023-05-02T06:23:54.647Z,257.55
2023-05-02T06:24:54.684Z,250.00
2023-05-02T06:25:54.629Z,247.48
2023-05-02T06:26:54.645Z,244.67
2023-05-02T06:27:54.698Z,243.92
2023-05-02T06:28:54.598Z,246.07
2023-05-02T06:29:54.598Z,247.92
2023-05-02T06:30:54.571Z,248.23
2023-05-02T06:31:54.590Z,248.50
2023-05-02T06:32:54.707Z,248.06
2023-05-02T06:33:55.196Z,248.62
2023-05-02T06:34:54.549Z,246.06
2023-05-02T06:35:54.519Z,246.44
2023-05-02T06:36:54.502Z,247.04
2023-05-02T06:37:54.494Z,246.84
2023-05-02T06:38:55.195Z,248.23
2023-05-02T06:39:54.504Z,245.89
2023-05-02T06:40:54.489Z,245.99
2023-05-02T06:41:54.477Z,246.05
2023-05-02T06:42:54.483Z,247.48
2023-05-02T06:43:54.473Z,247.56
2023-05-02T06:44:54.470Z,247.50
2023-05-02T06:45:54.472Z,247.15
2023-05-02T06:46:54.463Z,244.68
2023-05-02T06:47:54.481Z,245.22
2023-05-02T06:48:54.444Z,244.54
2023-05-02T06:49:54.406Z,245.62
2023-05-02T06:50:54.423Z,244.49
2023-05-02T06:51:54.397Z,242.48
2023-05-02T06:52:54.387Z,242.89
2023-05-02T06:53:54.376Z,243.96
2023-05-02T06:54:54.359Z,243.64
2023-05-02T06:55:54.383Z,241.22
2023-05-02T06:56:54.422Z,241.51
2023-05-02T06:57:54.465Z,238.94
2023-05-02T06:58:54.567Z,240.41
2023-05-02T06:59:54.530Z,241.87
2023-05-02T07:00:54.625Z,238.65
2023-05-02T07:01:54.613Z,238.67
2023-05-02T07:02:54.662Z,238.75
2023-05-02T07:03:54.692Z,239.07
2023-05-02T07:04:54.615Z,239.36
2023-05-02T07:05:54.617Z,238.03
2023-05-02T07:06:54.661Z,236.41
2023-05-02T07:07:54.616Z,235.08
2023-05-02T07:08:54.605Z,238.81
2023-05-02T07:09:54.618Z,233.60
2023-05-02T07:10:54.598Z,234.42
2023-05-02T07:11:54.613Z,234.08
2023-05-02T07:12:54.606Z,232.84
2023-05-02T07:13:54.617Z,232.74
2023-05-02T07:14:54.689Z,232.88
2023-05-02T07:15:54.724Z,232.75
2023-05-02T07:16:54.824Z,233.09
2023-05-02T07:17:54.835Z,231.74
2023-05-02T07:18:54.923Z,229.90
2023-05-02T07:19:54.902Z,228.60
2023-05-02T07:20:54.956Z,228.47
2023-05-02T07:21:55.033Z,228.86
2023-05-02T07:22:54.994Z,229.15
2023-05-02T07:23:54.995Z,230.78
2023-05-02T07:24:55.027Z,230.64
2023-05-02T07:25:54.984Z,232.84
2023-05-02T07:26:55.001Z,234.72
2023-05-02T07:27:54.997Z,237.62
2023-05-02T07:28:54.982Z,238.98
2023-05-02T07:29:54.980Z,241.85
2023-05-02T07:30:54.975Z,243.48
2023-05-02T07:31:55.026Z,243.62
2023-05-02T07:32:55.838Z,244.63
2023-05-02T07:33:54.958Z,246.62
2023-05-02T07:34:54.958Z,249.64
2023-05-02T07:35:54.941Z,256.29
2023-05-02T07:36:54.933Z,244.27
2023-05-02T07:37:54.924Z,246.56
2023-05-02T07:38:54.933Z,250.71
2023-05-02T07:39:54.935Z,260.42
2023-05-02T07:40:54.927Z,269.32
2023-05-02T07:41:54.889Z,257.49
2023-05-02T07:42:54.885Z,249.79
2023-05-02T07:43:54.876Z,248.82
2023-05-02T07:44:55.888Z,247.69
2023-05-02T07:45:54.932Z,249.82
2023-05-02T07:46:54.856Z,246.70
2023-05-02T07:47:54.842Z,248.26
2023-05-02T07:48:54.826Z,249.38
2023-05-02T07:49:54.813Z,249.10
2023-05-02T07:50:54.801Z,247.92
2023-05-02T07:51:54.794Z,248.82
2023-05-02T07:52:54.784Z,250.00
2023-05-02T07:53:54.778Z,250.00
2023-05-02T07:54:54.765Z,249.89
2023-05-02T07:55:54.789Z,250.28
2023-05-02T07:56:55.803Z,250.00
2023-05-02T07:57:54.856Z,249.06
2023-05-02T07:58:54.900Z,249.53
2023-05-02T07:59:54.910Z,247.74
2023-05-02T08:00:54.939Z,249.40
2023-05-02T08:01:54.958Z,242.66
2023-05-02T08:02:55.113Z,221.10
2023-05-02T08:03:55.967Z,189.31
2023-05-02T08:04:55.034Z,175.01
2023-05-02T08:05:55.028Z,160.56
2023-05-02T08:06:55.135Z,148.01
2023-05-02T08:07:54.995Z,140.22
2023-05-02T08:08:54.990Z,132.86
2023-05-02T08:09:55.804Z,230.09
2023-05-02T08:10:54.996Z,173.40
2023-05-02T08:11:55.005Z,155.91
2023-05-02T08:12:55.827Z,140.06
2023-05-02T08:13:55.011Z,132.99
2023-05-02T08:14:54.995Z,134.85
2023-05-02T08:15:55.376Z,138.71
2023-05-02T08:16:55.014Z,130.27
2023-05-02T08:17:55.038Z,117.25
2023-05-02T08:18:55.061Z,104.51
2023-05-02T08:19:55.033Z,82.82
2023-05-02T08:20:55.061Z,76.93
2023-05-02T08:21:55.133Z,70.01
2023-05-02T08:22:55.174Z,56.65
2023-05-02T08:23:55.189Z,48.09
2023-05-02T08:24:55.230Z,43.62
2023-05-02T08:25:55.810Z,55.47
2023-05-02T08:26:55.335Z,62.05
2023-05-02T08:27:58.843Z,55.60
2023-05-02T08:28:55.395Z,58.19
2023-05-02T08:29:55.990Z,59.03
2023-05-02T08:30:55.483Z,64.68
2023-05-02T08:31:55.442Z,68.72
2023-05-02T08:32:55.484Z,73.14
2023-05-02T08:33:56.326Z,78.01
2023-05-02T08:34:55.379Z,85.66
2023-05-02T08:35:55.319Z,89.12
2023-05-02T08:36:58.053Z,91.24
2023-05-02T08:37:55.287Z,98.98
2023-05-02T08:38:55.289Z,101.12
2023-05-02T08:39:55.249Z,102.76
2023-05-02T08:40:55.242Z,106.26
2023-05-02T08:41:55.221Z,107.48
2023-05-02T08:42:55.215Z,110.81
2023-05-02T08:43:55.191Z,112.33
2023-05-02T08:44:55.190Z,116.52
2023-05-02T08:45:55.167Z,118.35
2023-05-02T08:46:55.225Z,121.21
2023-05-02T08:47:55.152Z,124.62
2023-05-02T08:48:55.121Z,126.97
2023-05-02T08:49:55.105Z,133.68
2023-05-02T08:50:55.078Z,137.26
2023-05-02T08:51:55.045Z,139.64
2023-05-02T08:52:55.030Z,141.82
2023-05-02T08:53:55.013Z,142.90
2023-05-02T08:54:54.996Z,146.59
2023-05-02T08:55:55.757Z,150.05
2023-05-02T08:56:54.967Z,153.68
2023-05-02T08:57:54.934Z,153.37
2023-05-02T08:58:54.923Z,157.43
2023-05-02T08:59:54.910Z,160.11
2023-05-02T09:00:54.942Z,161.31
2023-05-02T09:01:54.857Z,169.32
2023-05-02T09:02:54.888Z,170.31
2023-05-02T09:03:54.856Z,171.87
2023-05-02T09:04:54.809Z,175.66
2023-05-02T09:05:54.792Z,181.43
2023-05-02T09:06:54.815Z,181.48
2023-05-02T09:07:54.756Z,182.30
2023-05-02T09:08:54.783Z,183.14
2023-05-02T09:09:54.707Z,184.12
2023-05-02T09:10:54.688Z,185.43
2023-05-02T09:11:54.675Z,190.42
2023-05-02T09:12:54.649Z,190.96
2023-05-02T09:13:54.636Z,193.80
2023-05-02T09:14:55.343Z,196.89
2023-05-02T09:15:54.837Z,197.10
2023-05-02T09:16:54.920Z,186.15
2023-05-02T09:17:54.831Z,174.42
2023-05-02T09:18:54.782Z,172.73
2023-05-02T09:19:54.774Z,163.04
2023-05-02T09:20:54.741Z,166.45
2023-05-02T09:21:54.737Z,156.63
2023-05-02T09:22:54.701Z,135.40
2023-05-02T09:23:54.684Z,118.32
2023-05-02T09:24:54.660Z,109.14
2023-05-02T09:25:54.648Z,125.97
2023-05-02T09:26:54.624Z,127.43
2023-05-02T09:27:54.600Z,132.45
2023-05-02T09:28:54.585Z,138.97
2023-05-02T09:29:54.613Z,142.13
2023-05-02T09:30:54.693Z,143.89
2023-05-02T09:31:56.676Z,144.60
2023-05-02T09:32:54.751Z,149.07
2023-05-02T09:33:54.764Z,150.02
2023-05-02T09:34:54.794Z,153.36
2023-05-02T09:35:54.836Z,155.39
2023-05-02T09:36:54.985Z,156.24
2023-05-02T09:37:54.877Z,160.05
2023-05-02T09:38:54.973Z,164.41
2023-05-02T09:39:54.935Z,166.60
2023-05-02T09:40:54.951Z,167.54
2023-05-02T09:41:55.073Z,172.95
2023-05-02T09:42:55.023Z,171.82
2023-05-02T09:43:55.029Z,177.37
2023-05-02T09:44:55.050Z,177.17
2023-05-02T09:45:55.089Z,178.83
2023-05-02T09:46:55.097Z,182.47
2023-05-02T09:47:55.258Z,184.49
2023-05-02T09:48:55.096Z,186.08
2023-05-02T09:49:55.091Z,194.04
2023-05-02T09:50:55.107Z,202.22
2023-05-02T09:51:55.106Z,201.64
2023-05-02T09:52:55.128Z,202.91
2023-05-02T09:53:55.158Z,206.85
2023-05-02T09:54:55.116Z,208.95
2023-05-02T09:55:55.112Z,209.19
2023-05-02T09:56:55.117Z,210.34
2023-05-02T09:57:55.854Z,213.77
2023-05-02T09:58:55.124Z,217.19
2023-05-02T09:59:55.115Z,218.59
2023-05-02T10:00:55.118Z,218.64
2023-05-02T10:01:55.205Z,218.24
2023-05-02T10:02:55.136Z,218.45
2023-05-02T10:03:55.069Z,219.36
2023-05-02T10:04:55.062Z,222.33
2023-05-02T10:05:55.206Z,227.19
2023-05-02T10:06:55.009Z,234.54
2023-05-02T10:07:54.975Z,236.61
2023-05-02T10:08:55.966Z,236.86
2023-05-02T10:09:54.911Z,238.14
2023-05-02T10:10:54.875Z,236.34
2023-05-02T10:11:54.854Z,236.74
2023-05-02T10:12:54.853Z,236.75
2023-05-02T10:13:56.460Z,236.89
2023-05-02T10:14:54.793Z,237.41
2023-05-02T10:15:56.432Z,238.05
2023-05-02T10:16:54.740Z,238.20
2023-05-02T10:17:54.766Z,238.39
2023-05-02T10:18:54.749Z,240.23
2023-05-02T10:19:55.327Z,239.67
2023-05-02T10:20:54.671Z,240.44
2023-05-02T10:21:59.374Z,238.92
2023-05-02T10:22:55.368Z,239.04
2023-05-02T10:23:54.596Z,239.13
2023-05-02T10:24:55.371Z,238.32
2023-05-02T10:25:54.585Z,239.07
2023-05-02T10:26:56.446Z,236.49
2023-05-02T10:27:54.525Z,236.06
2023-05-02T10:28:54.487Z,235.19
2023-05-02T10:29:57.366Z,237.46
2023-05-02T10:30:54.463Z,236.24
2023-05-02T10:31:54.500Z,236.09
2023-05-02T10:32:54.505Z,236.77
2023-05-02T10:33:54.399Z,237.18
2023-05-02T10:34:54.367Z,235.89
2023-05-02T10:35:54.352Z,236.16
2023-05-02T10:36:54.339Z,236.49
2023-05-02T10:37:54.332Z,237.05
2023-05-02T10:38:54.311Z,237.94
2023-05-02T10:39:54.290Z,237.18
2023-05-02T10:40:54.278Z,238.62
2023-05-02T10:41:54.255Z,236.71
2023-05-02T10:43:01.866Z,236.74
2023-05-02T10:43:54.210Z,236.97
2023-05-02T10:44:55.876Z,237.30
2023-05-02T10:45:54.192Z,237.43
2023-05-02T10:46:54.196Z,237.29
2023-05-02T10:47:54.886Z,237.79
2023-05-02T10:48:54.146Z,236.69
2023-05-02T10:49:58.905Z,237.96
2023-05-02T10:50:54.093Z,238.03
2023-05-02T10:51:54.082Z,237.32
2023-05-02T10:52:54.058Z,235.61
2023-05-02T10:53:59.373Z,235.77
2023-05-02T10:54:54.011Z,238.06
2023-05-02T10:55:54.037Z,237.81
2023-05-02T10:56:54.069Z,236.16
2023-05-02T10:57:54.119Z,233.67
2023-05-02T10:58:54.179Z,233.27
2023-05-02T10:59:54.227Z,234.35
2023-05-02T11:00:54.301Z,234.00
2023-05-02T11:01:54.300Z,232.60
2023-05-02T11:02:54.402Z,232.56
2023-05-02T11:03:54.351Z,231.83
2023-05-02T11:04:54.370Z,232.82
2023-05-02T11:05:54.437Z,232.78
2023-05-02T11:06:54.488Z,230.90
2023-05-02T11:07:54.539Z,231.39
2023-05-02T11:08:54.578Z,230.88
2023-05-02T11:09:54.617Z,228.57
2023-05-02T11:10:54.688Z,230.10
2023-05-02T11:11:54.731Z,228.32
2023-05-02T11:12:54.788Z,229.70
2023-05-02T11:13:54.841Z,228.91
2023-05-02T11:14:54.877Z,228.65
2023-05-02T11:15:54.911Z,228.27
2023-05-02T11:16:55.132Z,227.96
2023-05-02T11:17:55.016Z,227.38
2023-05-02T11:18:54.992Z,227.45
2023-05-02T11:19:55.004Z,226.97
2023-05-02T11:20:55.032Z,226.91
2023-05-02T11:21:55.056Z,227.29
2023-05-02T11:22:55.220Z,227.77
2023-05-02T11:23:55.137Z,225.34
2023-05-02T11:24:55.115Z,226.45
2023-05-02T11:25:55.213Z,225.52
2023-05-02T11:26:55.249Z,225.56
2023-05-02T11:27:55.283Z,226.02
2023-05-02T11:28:55.357Z,226.90
2023-05-02T11:29:55.399Z,225.54
2023-05-02T11:30:56.685Z,224.85
2023-05-02T11:31:55.593Z,224.42
2023-05-02T11:32:55.578Z,223.36
2023-05-02T11:33:55.618Z,225.07
2023-05-02T11:34:55.668Z,225.25
2023-05-02T11:35:55.722Z,223.84
2023-05-02T11:36:55.758Z,224.46
2023-05-02T11:37:55.758Z,225.24
2023-05-02T11:38:55.752Z,224.23
2023-05-02T11:39:55.772Z,222.46
2023-05-02T11:40:55.739Z,222.65
2023-05-02T11:41:55.747Z,223.29
2023-05-02T11:42:55.772Z,223.61
2023-05-02T11:43:55.775Z,224.30
2023-05-02T11:44:55.772Z,223.62
2023-05-02T11:45:55.787Z,221.53
2023-05-02T11:46:55.764Z,222.97
2023-05-02T11:47:55.752Z,222.08
2023-05-02T11:48:55.768Z,221.86
2023-05-02T11:49:55.742Z,223.22
2023-05-02T11:50:55.749Z,223.16
2023-05-02T11:51:55.747Z,221.32
2023-05-02T11:52:55.731Z,220.13
2023-05-02T11:53:55.718Z,220.65
2023-05-02T11:54:55.731Z,220.15
2023-05-02T11:55:55.715Z,220.00
2023-05-02T11:56:55.722Z,220.07
2023-05-02T11:57:55.681Z,220.26
2023-05-02T11:58:55.687Z,218.89
2023-05-02T11:59:55.683Z,219.24
2023-05-02T12:00:55.682Z,219.18
2023-05-02T12:01:55.687Z,219.17
2023-05-02T12:02:55.767Z,217.30
2023-05-02T12:03:55.700Z,218.94
2023-05-02T12:04:55.673Z,219.17
2023-05-02T12:05:55.683Z,218.12
2023-05-02T12:06:55.691Z,218.29
2023-05-02T12:07:55.656Z,216.66
2023-05-02T12:08:55.695Z,216.71
2023-05-02T12:09:55.648Z,216.44
2023-05-02T12:10:55.634Z,213.51
2023-05-02T12:11:55.634Z,215.16
2023-05-02T12:12:55.631Z,214.89
2023-05-02T12:13:55.625Z,215.12
2023-05-02T12:14:55.633Z,215.13
2023-05-02T12:15:55.732Z,212.98
2023-05-02T12:16:55.587Z,212.97
2023-05-02T12:17:55.695Z,213.40
2023-05-02T12:18:55.588Z,212.30
2023-05-02T12:19:55.577Z,212.32
2023-05-02T12:20:55.578Z,213.24
2023-05-02T12:21:55.642Z,211.65
2023-05-02T12:22:55.552Z,212.43
2023-05-02T12:23:55.551Z,210.69
2023-05-02T12:24:55.532Z,210.77
2023-05-02T12:25:55.537Z,212.43
2023-05-02T12:26:55.516Z,211.25
2023-05-02T12:27:55.506Z,210.21
2023-05-02T12:28:55.503Z,209.98
2023-05-02T12:29:55.488Z,211.12
2023-05-02T12:30:55.495Z,210.23
2023-05-02T12:31:55.569Z,209.29
2023-05-02T12:32:55.519Z,210.46
2023-05-02T12:33:55.526Z,208.05
2023-05-02T12:34:55.481Z,209.17
2023-05-02T12:35:55.459Z,207.18
2023-05-02T12:36:55.468Z,208.80
2023-05-02T12:37:55.440Z,208.29
2023-05-02T12:38:55.435Z,208.80
2023-05-02T12:39:55.416Z,208.17